Metolius, Oregon
Current Conditions -  °F | °C
As of 2:55 AM on Thursday 27 Nov 2014 (Local Time) from KS39 Reporting Station
Overcast Overcast  
Wind Chill: 50°   Ceiling: 6500
Heat Index: 50°   Visibility: 10mi
Dew Point: 32°   Wind: 9mph
Humidity: 50%   Direction: 170°S
Pressure: 30.06"   Gusts: 15mph
Location:  44.6442°N, 121.064°W
Report Text: KS39 271055Z AUTO 17008G13KT 10SM BKN065 OVC075 10/M00 A3006 RMK AO2
Loading
Personal Weather Stations






























Interactive Weather Map New forecast layout! Learn more

10-Day Weather Forecast

Advertisements
Track Severe Weather on mobile